createdAt,value
2022-10-01T00:01:09.472Z,2.83
2022-10-01T00:03:38.202Z,3.07
2022-10-01T00:06:09.136Z,2.47
2022-10-01T00:08:37.532Z,2.57
2022-10-01T00:11:08.335Z,2.90
2022-10-01T00:13:36.415Z,2.60
2022-10-01T00:16:05.376Z,2.40
2022-10-01T00:18:35.845Z,2.17
2022-10-01T00:21:06.228Z,2.30
2022-10-01T00:23:33.892Z,2.60
2022-10-01T00:26:08.925Z,2.30
2022-10-01T00:28:36.862Z,2.60
2022-10-01T00:31:04.563Z,2.90
2022-10-01T00:33:33.849Z,2.50
2022-10-01T00:36:01.594Z,2.50
2022-10-01T00:38:29.866Z,2.50
2022-10-01T00:40:58.486Z,2.63
2022-10-01T00:43:28.956Z,2.27
2022-10-01T00:45:59.648Z,2.25
2022-10-01T00:48:28.822Z,2.42
2022-10-01T00:50:58.303Z,2.23
2022-10-01T00:53:26.583Z,2.37
2022-10-01T00:55:56.036Z,2.87
2022-10-01T00:58:24.386Z,2.90
2022-10-01T01:00:52.965Z,3.70
2022-10-01T01:03:20.707Z,3.53
2022-10-01T01:05:50.231Z,3.77
2022-10-01T01:08:19.515Z,3.70
2022-10-01T01:10:54.408Z,3.40
2022-10-01T01:13:25.934Z,3.10
2022-10-01T01:15:59.667Z,4.07
2022-10-01T01:18:30.910Z,2.93
2022-10-01T01:21:06.601Z,3.17
2022-10-01T01:23:44.502Z,3.75
2022-10-01T01:26:17.256Z,3.13
2022-10-01T01:28:48.953Z,3.60
2022-10-01T01:31:22.962Z,2.88
2022-10-01T01:33:52.399Z,2.67
2022-10-01T01:36:21.776Z,2.40
2022-10-01T01:38:51.940Z,2.57
2022-10-01T01:41:20.401Z,2.70
2022-10-01T01:43:51.245Z,3.00
2022-10-01T01:46:20.421Z,2.70
2022-10-01T01:48:51.121Z,3.17
2022-10-01T01:51:41.001Z,3.03
2022-10-01T01:54:09.535Z,3.60
2022-10-01T01:56:37.503Z,3.40
2022-10-01T01:59:08.460Z,3.10
2022-10-01T02:01:39.385Z,3.30
2022-10-01T02:04:09.848Z,2.30
2022-10-01T02:06:47.642Z,2.40
2022-10-01T02:09:20.790Z,2.40
2022-10-01T02:11:55.004Z,3.17
2022-10-01T02:14:28.923Z,3.87
2022-10-01T02:17:01.963Z,3.40
2022-10-01T02:19:33.842Z,3.20
2022-10-01T02:22:03.491Z,3.30
2022-10-01T02:24:36.070Z,3.37
2022-10-01T02:27:06.154Z,3.43
2022-10-01T02:29:36.460Z,2.83
2022-10-01T02:32:04.067Z,2.97
2022-10-01T02:34:32.034Z,2.80
2022-10-01T02:37:01.256Z,2.60
2022-10-01T02:39:30.672Z,3.23
2022-10-01T02:41:59.999Z,2.50
2022-10-01T02:44:30.246Z,2.57
2022-10-01T02:47:01.459Z,2.50
2022-10-01T02:49:31.044Z,2.50
2022-10-01T02:52:01.043Z,2.87
2022-10-01T02:54:31.027Z,2.50
2022-10-01T02:57:09.288Z,2.73
2022-10-01T02:59:36.968Z,2.80
2022-10-01T03:02:06.094Z,2.67
2022-10-01T03:04:33.799Z,1.95
2022-10-01T03:07:03.903Z,2.00
2022-10-01T03:09:32.241Z,1.97
2022-10-01T03:12:00.523Z,2.03
2022-10-01T03:14:28.512Z,1.77
2022-10-01T03:16:56.267Z,1.77
2022-10-01T03:19:25.223Z,1.80
2022-10-01T03:21:52.867Z,1.80
2022-10-01T03:24:20.520Z,1.70
2022-10-01T03:26:48.250Z,1.93
2022-10-01T03:29:16.055Z,1.63
2022-10-01T03:31:44.014Z,1.70
2022-10-01T03:34:13.356Z,1.50
2022-10-01T03:36:42.382Z,1.93
2022-10-01T03:39:10.076Z,1.60
2022-10-01T03:41:37.951Z,1.70
2022-10-01T03:44:05.656Z,1.65
2022-10-01T03:46:33.324Z,2.00
2022-10-01T03:49:01.045Z,1.83
2022-10-01T03:51:29.159Z,1.80
2022-10-01T03:53:58.632Z,2.00
2022-10-01T03:56:26.570Z,2.00
2022-10-01T03:58:54.609Z,1.97
2022-10-01T04:01:22.418Z,1.73
2022-10-01T04:03:50.229Z,2.17
2022-10-01T04:06:17.960Z,1.97
2022-10-01T04:08:45.886Z,1.77
2022-10-01T04:11:14.987Z,1.70
2022-10-01T04:13:42.642Z,1.50
2022-10-01T04:16:10.407Z,2.43
2022-10-01T04:18:38.323Z,1.98
2022-10-01T04:21:06.079Z,2.03
2022-10-01T04:23:34.034Z,1.90
2022-10-01T04:26:03.041Z,1.93
2022-10-01T04:28:32.472Z,1.90
2022-10-01T04:31:14.489Z,1.87
2022-10-01T04:33:42.716Z,2.17
2022-10-01T04:36:10.408Z,1.80
2022-10-01T04:38:38.129Z,1.77
2022-10-01T04:41:05.952Z,2.07
2022-10-01T04:43:35.046Z,1.63
2022-10-01T04:46:02.710Z,2.30
2022-10-01T04:48:30.375Z,1.90
2022-10-01T04:50:58.052Z,1.97
2022-10-01T04:53:25.740Z,2.20
2022-10-01T04:55:53.585Z,2.20
2022-10-01T04:58:21.234Z,1.93
2022-10-01T05:00:50.532Z,1.93
2022-10-01T05:03:18.401Z,1.90
2022-10-01T05:05:46.134Z,2.03
2022-10-01T05:08:13.859Z,1.70
2022-10-01T05:10:41.881Z,1.83
2022-10-01T05:13:11.434Z,1.87
2022-10-01T05:15:39.115Z,2.00
2022-10-01T05:18:08.025Z,2.10
2022-10-01T05:20:37.717Z,1.77
2022-10-01T05:23:05.647Z,2.13
2022-10-01T05:25:33.313Z,2.13
2022-10-01T05:28:05.018Z,2.10
2022-10-01T05:30:33.460Z,2.10
2022-10-01T05:33:02.496Z,1.93
2022-10-01T05:35:31.872Z,1.93
2022-10-01T05:38:00.569Z,2.10
2022-10-01T05:40:28.922Z,2.20
2022-10-01T05:42:57.059Z,2.50
2022-10-01T05:45:24.920Z,2.30
2022-10-01T05:48:00.768Z,2.70
2022-10-01T05:50:28.729Z,2.27
2022-10-01T05:52:58.105Z,2.30
2022-10-01T05:55:26.089Z,2.17
2022-10-01T05:57:55.244Z,2.60
2022-10-01T06:00:23.775Z,2.23
2022-10-01T06:02:52.100Z,2.90
2022-10-01T06:05:19.968Z,2.00
2022-10-01T06:07:47.851Z,2.73
2022-10-01T06:10:17.892Z,2.40
2022-10-01T06:12:45.727Z,1.90
2022-10-01T06:15:14.012Z,2.30
2022-10-01T06:17:44.946Z,2.70
2022-10-01T06:20:13.881Z,2.67
2022-10-01T06:22:43.102Z,2.40
2022-10-01T06:25:11.336Z,2.33
2022-10-01T06:27:40.350Z,2.30
2022-10-01T06:30:08.542Z,2.80
2022-10-01T06:32:36.214Z,2.60
2022-10-01T06:35:04.299Z,2.33
2022-10-01T06:37:32.277Z,2.47
2022-10-01T06:40:00.119Z,2.27
2022-10-01T06:42:28.032Z,2.70
2022-10-01T06:44:57.159Z,2.00
2022-10-01T06:47:24.819Z,2.35
2022-10-01T06:49:52.679Z,2.50
2022-10-01T06:52:30.381Z,2.40
2022-10-01T06:55:00.239Z,2.63
2022-10-01T06:57:28.376Z,2.27
2022-10-01T06:59:58.591Z,2.67
2022-10-01T07:02:29.130Z,2.50
2022-10-01T07:04:58.961Z,2.15
2022-10-01T07:07:30.063Z,3.50
2022-10-01T07:09:58.077Z,1.80
2022-10-01T07:12:26.391Z,1.85
2022-10-01T07:14:54.479Z,1.85
2022-10-01T07:17:45.830Z,1.98
2022-10-01T07:20:15.622Z,1.98
2022-10-01T07:22:43.542Z,1.35
2022-10-01T07:25:11.291Z,1.70
2022-10-01T07:27:39.202Z,1.50
2022-10-01T07:30:07.999Z,1.48
2022-10-01T07:32:36.223Z,1.60
2022-10-01T07:35:05.930Z,2.40
2022-10-01T07:37:33.941Z,2.70
2022-10-01T07:40:06.664Z,3.08
2022-10-01T07:42:35.194Z,1.30
2022-10-01T07:45:03.810Z,1.42
2022-10-01T07:47:31.534Z,1.23
2022-10-01T07:49:59.173Z,1.38
2022-10-01T07:52:28.206Z,1.25
2022-10-01T07:54:55.796Z,1.10
2022-10-01T07:57:23.556Z,1.40
2022-10-01T07:59:55.639Z,1.20
2022-10-01T08:02:23.855Z,1.17
2022-10-01T08:05:02.871Z,1.20
2022-10-01T08:07:32.729Z,1.02
2022-10-01T08:10:00.438Z,2.22
2022-10-01T08:12:28.831Z,2.22
2022-10-01T08:14:56.859Z,1.58
2022-10-01T08:17:29.215Z,1.40
2022-10-01T08:19:57.292Z,1.70
2022-10-01T08:22:24.966Z,1.45
2022-10-01T08:24:54.197Z,1.40
2022-10-01T08:27:21.917Z,1.55
2022-10-01T08:29:49.623Z,1.90
2022-10-01T08:32:17.333Z,1.15
2022-10-01T08:34:45.108Z,1.00
2022-10-01T08:37:14.324Z,1.60
2022-10-01T08:39:42.213Z,1.00
2022-10-01T08:42:16.048Z,1.00
2022-10-01T08:44:44.653Z,1.40
2022-10-01T08:47:14.731Z,1.10
2022-10-01T08:49:43.483Z,1.10
2022-10-01T08:52:15.895Z,1.00
2022-10-01T08:54:46.569Z,1.15
2022-10-01T08:57:16.936Z,0.98
2022-10-01T08:59:45.503Z,0.95
2022-10-01T09:02:18.814Z,1.23
2022-10-01T09:04:46.892Z,1.00
2022-10-01T09:07:19.799Z,1.00
2022-10-01T09:09:56.289Z,1.10
2022-10-01T09:12:31.439Z,1.80
2022-10-01T09:15:05.501Z,3.15
2022-10-01T09:17:43.121Z,3.17
2022-10-01T09:20:12.964Z,3.95
2022-10-01T09:22:41.911Z,1.10
2022-10-01T09:25:14.484Z,1.10
2022-10-01T09:27:43.914Z,1.13
2022-10-01T09:30:13.630Z,1.00
2022-10-01T09:32:44.966Z,1.42
2022-10-01T09:35:20.250Z,1.70
2022-10-01T09:37:51.026Z,1.52
2022-10-01T09:40:22.222Z,1.52
2022-10-01T09:42:52.013Z,1.77
2022-10-01T09:45:20.577Z,1.70
2022-10-01T09:47:50.323Z,2.13
2022-10-01T09:50:21.168Z,2.25
2022-10-01T09:52:50.169Z,1.73
2022-10-01T09:55:23.312Z,1.90
2022-10-01T09:57:54.704Z,1.80
2022-10-01T10:00:23.432Z,2.17
2022-10-01T10:02:52.186Z,1.92
2022-10-01T10:05:21.050Z,1.80
2022-10-01T10:07:51.489Z,2.17
2022-10-01T10:10:25.357Z,2.03
2022-10-01T10:12:57.961Z,1.80
2022-10-01T10:15:26.613Z,1.90
2022-10-01T10:17:55.741Z,3.35
2022-10-01T10:20:26.026Z,3.33
2022-10-01T10:22:53.915Z,3.15
2022-10-01T10:25:23.129Z,2.00
2022-10-01T10:27:55.590Z,1.80
2022-10-01T10:30:25.299Z,1.90
2022-10-01T10:32:53.564Z,1.77
2022-10-01T10:35:24.522Z,1.73
2022-10-01T10:37:54.204Z,2.00
2022-10-01T10:40:28.437Z,1.80
2022-10-01T10:42:58.394Z,1.67
2022-10-01T10:45:31.033Z,1.80
2022-10-01T10:47:59.071Z,1.35
2022-10-01T10:50:30.856Z,1.70
2022-10-01T10:52:59.329Z,1.40
2022-10-01T10:55:28.229Z,1.65
2022-10-01T10:57:57.839Z,1.48
2022-10-01T11:00:29.653Z,1.55
2022-10-01T11:02:58.996Z,1.52
2022-10-01T11:05:28.957Z,1.25
2022-10-01T11:07:58.377Z,1.20
2022-10-01T11:10:32.032Z,1.30
2022-10-01T11:13:07.300Z,1.60
2022-10-01T11:15:45.448Z,1.58
2022-10-01T11:18:27.445Z,1.02
2022-10-01T11:21:02.543Z,1.52
2022-10-01T11:23:39.321Z,1.20
2022-10-01T11:26:11.718Z,1.17
2022-10-01T11:28:46.862Z,1.20
2022-10-01T11:31:18.622Z,1.17
2022-10-01T11:33:50.211Z,1.02
2022-10-01T11:36:24.868Z,1.10
2022-10-01T11:38:55.679Z,1.10
2022-10-01T11:41:26.652Z,1.50
2022-10-01T11:43:55.578Z,1.30
2022-10-01T11:46:29.581Z,1.27
2022-10-01T11:49:02.692Z,1.10
2022-10-01T11:51:35.102Z,0.95
2022-10-01T11:54:06.838Z,0.93
2022-10-01T11:56:45.555Z,1.13
2022-10-01T11:59:17.776Z,1.13
2022-10-01T12:01:50.560Z,1.23
2022-10-01T12:04:29.765Z,1.10
2022-10-01T12:07:00.386Z,1.13
2022-10-01T12:09:32.492Z,1.20
2022-10-01T12:12:01.592Z,1.02
2022-10-01T12:14:31.821Z,1.17
2022-10-01T12:17:05.370Z,1.33
2022-10-01T12:19:34.467Z,1.23
2022-10-01T12:22:05.967Z,1.30
2022-10-01T12:24:36.324Z,1.70
2022-10-01T12:27:10.248Z,1.30
2022-10-01T12:29:43.888Z,1.10
2022-10-01T12:32:18.114Z,1.10
2022-10-01T12:34:54.056Z,1.50
2022-10-01T12:37:26.327Z,1.60
2022-10-01T12:40:01.143Z,1.45
2022-10-01T12:42:43.033Z,1.50
2022-10-01T12:45:17.414Z,1.42
2022-10-01T12:47:48.291Z,1.30
2022-10-01T12:50:22.094Z,1.63
2022-10-01T12:52:54.636Z,1.55
2022-10-01T12:55:34.495Z,1.52
2022-10-01T12:58:06.361Z,1.60
2022-10-01T13:00:36.194Z,1.63
2022-10-01T13:03:15.376Z,1.70
2022-10-01T13:05:48.419Z,1.73
2022-10-01T13:08:28.361Z,2.17
2022-10-01T13:11:02.281Z,1.58
2022-10-01T13:13:32.827Z,1.48
2022-10-01T13:16:04.259Z,1.73
2022-10-01T13:18:37.470Z,1.52
2022-10-01T13:21:07.618Z,1.70
2022-10-01T13:23:39.847Z,1.50
2022-10-01T13:26:10.184Z,1.80
2022-10-01T13:28:47.136Z,2.10
2022-10-01T13:31:19.006Z,1.60
2022-10-01T13:33:56.228Z,2.08
2022-10-01T13:36:30.027Z,1.98
2022-10-01T13:38:57.947Z,2.17
2022-10-01T13:41:27.752Z,2.10
2022-10-01T13:43:58.991Z,2.08
2022-10-01T13:46:28.965Z,1.58
2022-10-01T13:49:07.058Z,1.77
2022-10-01T13:51:36.131Z,2.17
2022-10-01T13:54:05.125Z,2.10
2022-10-01T13:56:35.178Z,1.60
2022-10-01T13:59:03.597Z,1.50
2022-10-01T14:01:38.344Z,1.70
2022-10-01T14:04:09.848Z,1.60
2022-10-01T14:06:42.326Z,1.40
2022-10-01T14:09:15.134Z,1.38
2022-10-01T14:11:54.757Z,1.83
2022-10-01T14:14:38.865Z,1.42
2022-10-01T14:17:07.414Z,2.00
2022-10-01T14:19:36.506Z,1.35
2022-10-01T14:22:15.878Z,1.70
2022-10-01T14:24:50.166Z,1.80
2022-10-01T14:27:22.328Z,2.00
2022-10-01T14:29:56.587Z,1.90
2022-10-01T14:32:31.342Z,1.33
2022-10-01T14:35:12.721Z,1.38
2022-10-01T14:37:41.365Z,1.95
2022-10-01T14:40:15.348Z,1.17
2022-10-01T14:42:43.078Z,1.20
2022-10-01T14:45:19.231Z,1.60
2022-10-01T14:47:48.856Z,1.30
2022-10-01T14:50:19.980Z,1.50
2022-10-01T14:52:49.364Z,1.38
2022-10-01T14:55:18.966Z,1.88
2022-10-01T14:57:49.339Z,1.00
2022-10-01T15:00:18.785Z,1.30
2022-10-01T15:02:47.376Z,1.10
2022-10-01T15:05:21.526Z,1.30
2022-10-01T15:07:50.495Z,1.00
2022-10-01T15:10:19.417Z,1.00
2022-10-01T15:12:48.706Z,2.85
2022-10-01T15:15:17.750Z,2.75
2022-10-01T15:17:45.467Z,3.17
2022-10-01T15:20:13.388Z,2.90
2022-10-01T15:22:43.886Z,2.53
2022-10-01T15:25:17.180Z,2.17
2022-10-01T15:27:44.889Z,2.22
2022-10-01T15:30:14.747Z,2.00
2022-10-01T15:32:42.829Z,2.13
2022-10-01T15:35:12.627Z,2.10
2022-10-01T15:37:43.320Z,2.05
2022-10-01T15:40:21.845Z,2.35
2022-10-01T15:43:06.344Z,2.38
2022-10-01T15:45:34.649Z,2.30
2022-10-01T15:48:02.859Z,2.33
2022-10-01T15:50:32.763Z,2.50
2022-10-01T15:53:06.072Z,2.03
2022-10-01T15:55:34.968Z,2.25
2022-10-01T15:58:05.299Z,2.55
2022-10-01T16:00:35.816Z,1.95
2022-10-01T16:03:03.872Z,2.30
2022-10-01T16:05:33.901Z,2.00
2022-10-01T16:08:03.346Z,1.92
2022-10-01T16:10:34.360Z,2.10
2022-10-01T16:13:29.019Z,1.88
2022-10-01T16:16:06.486Z,1.88
2022-10-01T16:18:34.753Z,1.67
2022-10-01T16:21:02.376Z,1.85
2022-10-01T16:23:34.741Z,1.70
2022-10-01T16:26:03.042Z,2.00
2022-10-01T16:28:31.298Z,2.08
2022-10-01T16:30:59.036Z,2.33
2022-10-01T16:33:27.887Z,2.42
2022-10-01T16:35:57.365Z,2.17
2022-10-01T16:38:25.051Z,2.42
2022-10-01T16:40:54.176Z,2.50
2022-10-01T16:43:23.347Z,1.90
2022-10-01T16:45:51.689Z,1.50
2022-10-01T16:48:20.476Z,1.23
2022-10-01T16:50:48.267Z,1.40
2022-10-01T16:53:16.474Z,1.73
2022-10-01T16:55:44.841Z,1.52
2022-10-01T16:58:14.261Z,1.23
2022-10-01T17:00:42.843Z,1.20
2022-10-01T17:03:15.003Z,1.20
2022-10-01T17:05:43.943Z,1.10
2022-10-01T17:08:12.052Z,1.13
2022-10-01T17:10:42.399Z,0.70
2022-10-01T17:13:11.526Z,0.70
2022-10-01T17:15:40.848Z,0.90
2022-10-01T17:18:08.913Z,1.00
2022-10-01T17:20:38.074Z,0.70
2022-10-01T17:23:06.027Z,1.10
2022-10-01T17:25:36.479Z,1.27
2022-10-01T17:28:05.238Z,2.20
2022-10-01T17:30:33.173Z,2.42
2022-10-01T17:33:02.444Z,2.60
2022-10-01T17:35:30.627Z,2.42
2022-10-01T17:37:58.592Z,2.15
2022-10-01T17:40:26.448Z,2.40
2022-10-01T17:42:54.234Z,2.33
2022-10-01T17:45:21.891Z,2.20
2022-10-01T17:47:50.273Z,1.83
2022-10-01T17:50:19.401Z,2.10
2022-10-01T17:52:47.873Z,1.77
2022-10-01T17:55:15.763Z,2.45
2022-10-01T17:57:43.411Z,2.00
2022-10-01T18:00:11.454Z,2.25
2022-10-01T18:02:42.951Z,2.05
2022-10-01T18:05:12.438Z,2.40
2022-10-01T18:07:42.024Z,2.40
2022-10-01T18:10:10.853Z,2.10
2022-10-01T18:12:38.632Z,1.70
2022-10-01T18:15:06.616Z,1.58
2022-10-01T18:17:36.371Z,1.58
2022-10-01T18:20:05.139Z,1.70
2022-10-01T18:22:32.820Z,1.45
2022-10-01T18:25:03.444Z,1.30
2022-10-01T18:27:31.445Z,1.70
2022-10-01T18:29:59.114Z,1.60
2022-10-01T18:32:28.067Z,2.22
2022-10-01T18:34:57.844Z,2.42
2022-10-01T18:37:29.194Z,2.33
2022-10-01T18:39:59.986Z,1.88
2022-10-01T18:42:31.072Z,2.75
2022-10-01T18:45:00.300Z,3.92
2022-10-01T18:47:33.848Z,2.85
2022-10-01T18:50:07.176Z,2.53
2022-10-01T18:52:37.950Z,2.63
2022-10-01T18:55:20.913Z,1.60
2022-10-01T18:57:58.309Z,1.45
2022-10-01T19:00:27.442Z,1.10
2022-10-01T19:03:04.915Z,1.40
2022-10-01T19:05:43.826Z,1.33
2022-10-01T19:08:18.207Z,1.40
2022-10-01T19:10:50.015Z,3.10
2022-10-01T19:13:23.543Z,1.30
2022-10-01T19:15:57.811Z,1.27
2022-10-01T19:18:35.226Z,1.30
2022-10-01T19:21:06.552Z,1.20
2022-10-01T19:23:42.172Z,1.60
2022-10-01T19:26:13.715Z,1.60
2022-10-01T19:28:50.652Z,1.90
2022-10-01T19:31:22.626Z,1.50
2022-10-01T19:33:52.701Z,1.73
2022-10-01T19:36:24.290Z,2.08
2022-10-01T19:38:52.641Z,1.80
2022-10-01T19:41:24.156Z,2.22
2022-10-01T19:43:55.074Z,2.50
2022-10-01T19:46:26.398Z,2.55
2022-10-01T19:48:57.069Z,3.30
2022-10-01T19:51:29.066Z,3.38
2022-10-01T19:54:00.863Z,3.03
2022-10-01T19:56:29.283Z,3.20
2022-10-01T19:58:59.054Z,3.45
2022-10-01T20:01:32.212Z,2.70
2022-10-01T20:04:02.363Z,3.00
2022-10-01T20:06:31.447Z,3.22
2022-10-01T20:09:00.443Z,3.35
2022-10-01T20:11:30.222Z,3.78
2022-10-01T20:14:07.421Z,3.33
2022-10-01T20:16:41.377Z,3.17
2022-10-01T20:19:14.577Z,2.88
2022-10-01T20:21:45.421Z,2.58
2022-10-01T20:24:20.347Z,2.20
2022-10-01T20:26:50.298Z,2.33
2022-10-01T20:29:23.486Z,2.85
2022-10-01T20:31:56.697Z,2.30
2022-10-01T20:34:28.477Z,1.95
2022-10-01T20:36:59.887Z,2.92
2022-10-01T20:39:30.814Z,2.50
2022-10-01T20:41:58.999Z,2.15
2022-10-01T20:44:27.972Z,2.20
2022-10-01T20:47:00.287Z,2.17
2022-10-01T20:49:30.865Z,2.70
2022-10-01T20:52:01.615Z,1.73
2022-10-01T20:54:32.680Z,1.60
2022-10-01T20:57:03.058Z,1.40
2022-10-01T20:59:33.278Z,1.30
2022-10-01T21:02:06.696Z,2.13
2022-10-01T21:04:38.581Z,2.92
2022-10-01T21:07:10.542Z,2.50
2022-10-01T21:09:41.091Z,2.65
2022-10-01T21:12:12.558Z,2.70
2022-10-01T21:14:42.708Z,2.60
2022-10-01T21:17:17.686Z,2.42
2022-10-01T21:19:55.669Z,3.00
2022-10-01T21:22:30.930Z,2.90
2022-10-01T21:25:03.154Z,2.63
2022-10-01T21:27:39.795Z,3.13
2022-10-01T21:30:11.537Z,2.20
2022-10-01T21:32:59.983Z,3.42
2022-10-01T21:35:32.828Z,1.80
2022-10-01T21:38:04.236Z,2.28
2022-10-01T21:40:40.072Z,2.40
2022-10-01T21:43:11.210Z,2.55
2022-10-01T21:45:43.631Z,2.25
2022-10-01T21:48:20.474Z,2.40
2022-10-01T21:50:51.010Z,1.90
2022-10-01T21:53:30.570Z,1.77
2022-10-01T21:56:06.447Z,1.73
2022-10-01T21:58:38.492Z,2.20
2022-10-01T22:01:09.494Z,2.30
2022-10-01T22:03:43.752Z,2.55
2022-10-01T22:06:15.116Z,2.72
2022-10-01T22:08:49.364Z,2.97
2022-10-01T22:11:19.556Z,2.90
2022-10-01T22:13:50.196Z,2.55
2022-10-01T22:16:18.197Z,2.17
2022-10-01T22:18:49.179Z,2.55
2022-10-01T22:21:20.768Z,1.98
2022-10-01T22:23:50.955Z,1.98
2022-10-01T22:26:20.606Z,1.90
2022-10-01T22:28:50.504Z,1.85
2022-10-01T22:31:20.228Z,1.75
2022-10-01T22:33:52.578Z,1.70
2022-10-01T22:36:23.758Z,1.50
2022-10-01T22:38:54.109Z,1.50
2022-10-01T22:41:25.576Z,1.50
2022-10-01T22:43:53.954Z,1.60
2022-10-01T22:46:32.131Z,1.70
2022-10-01T22:49:04.721Z,1.40
2022-10-01T22:51:41.565Z,1.60
2022-10-01T22:54:17.475Z,1.63
2022-10-01T22:56:49.351Z,2.47
2022-10-01T22:59:23.761Z,2.20
2022-10-01T23:01:57.277Z,2.30
2022-10-01T23:04:33.243Z,2.10
2022-10-01T23:07:06.856Z,1.83
2022-10-01T23:09:36.288Z,1.70
2022-10-01T23:12:09.285Z,1.88
2022-10-01T23:14:43.414Z,1.90
2022-10-01T23:17:14.260Z,1.60
2022-10-01T23:19:48.728Z,1.30
2022-10-01T23:22:20.808Z,1.45
2022-10-01T23:24:54.930Z,1.60
2022-10-01T23:27:31.883Z,1.50
2022-10-01T23:30:03.665Z,1.40
2022-10-01T23:32:42.212Z,1.23
2022-10-01T23:35:14.169Z,1.25
2022-10-01T23:37:51.680Z,1.30
2022-10-01T23:40:20.544Z,1.15
2022-10-01T23:42:54.071Z,1.20
2022-10-01T23:45:26.064Z,1.10
2022-10-01T23:47:58.367Z,0.82
2022-10-01T23:50:31.739Z,0.93
2022-10-01T23:53:03.123Z,0.93
2022-10-01T23:55:47.720Z,1.00
2022-10-01T23:58:16.880Z,0.90
